sensor_id;sensor_type;location;lat;lon;timestamp;P1;durP1;ratioP1;P2;durP2;ratioP2
66380;SDS011;53177;52.648;1.214;2023-10-13T00:01:07;46.10;;;12.13;;
66380;SDS011;53177;52.648;1.214;2023-10-13T00:03:33;47.37;;;12.13;;
66380;SDS011;53177;52.648;1.214;2023-10-13T00:05:58;48.77;;;12.90;;
66380;SDS011;53177;52.648;1.214;2023-10-13T00:08:28;47.58;;;11.98;;
66380;SDS011;53177;52.648;1.214;2023-10-13T00:10:54;47.58;;;12.23;;
66380;SDS011;53177;52.648;1.214;2023-10-13T00:13:25;48.60;;;12.30;;
66380;SDS011;53177;52.648;1.214;2023-10-13T00:15:51;52.35;;;13.20;;
66380;SDS011;53177;52.648;1.214;2023-10-13T00:18:24;51.42;;;12.45;;
66380;SDS011;53177;52.648;1.214;2023-10-13T00:20:52;49.58;;;12.77;;
66380;SDS011;53177;52.648;1.214;2023-10-13T00:23:22;52.25;;;12.90;;
66380;SDS011;53177;52.648;1.214;2023-10-13T00:25:51;49.17;;;13.02;;
66380;SDS011;53177;52.648;1.214;2023-10-13T00:28:25;50.28;;;12.95;;
66380;SDS011;53177;52.648;1.214;2023-10-13T00:30:52;51.40;;;13.20;;
66380;SDS011;53177;52.648;1.214;2023-10-13T00:33:24;58.67;;;13.95;;
66380;SDS011;53177;52.648;1.214;2023-10-13T00:35:51;59.67;;;13.95;;
66380;SDS011;53177;52.648;1.214;2023-10-13T00:38:22;57.72;;;14.25;;
66380;SDS011;53177;52.648;1.214;2023-10-13T00:40:48;58.75;;;14.32;;
66380;SDS011;53177;52.648;1.214;2023-10-13T00:43:17;59.75;;;15.48;;
66380;SDS011;53177;52.648;1.214;2023-10-13T00:45:53;67.20;;;15.75;;
66380;SDS011;53177;52.648;1.214;2023-10-13T00:48:23;61.75;;;15.88;;
66380;SDS011;53177;52.648;1.214;2023-10-13T00:51:04;59.00;;;15.88;;
66380;SDS011;53177;52.648;1.214;2023-10-13T00:53:32;62.22;;;16.27;;
66380;SDS011;53177;52.648;1.214;2023-10-13T00:56:02;63.67;;;16.92;;
66380;SDS011;53177;52.648;1.214;2023-10-13T00:58:47;64.82;;;16.95;;
66380;SDS011;53177;52.648;1.214;2023-10-13T01:01:15;58.58;;;15.05;;
66380;SDS011;53177;52.648;1.214;2023-10-13T01:03:46;68.22;;;17.55;;
66380;SDS011;53177;52.648;1.214;2023-10-13T01:06:14;66.20;;;17.60;;
66380;SDS011;53177;52.648;1.214;2023-10-13T01:08:42;59.17;;;16.35;;
66380;SDS011;53177;52.648;1.214;2023-10-13T01:11:09;57.85;;;16.25;;
66380;SDS011;53177;52.648;1.214;2023-10-13T01:13:35;61.58;;;16.60;;
66380;SDS011;53177;52.648;1.214;2023-10-13T01:16:02;60.80;;;18.17;;
66380;SDS011;53177;52.648;1.214;2023-10-13T01:18:32;57.65;;;16.65;;
66380;SDS011;53177;52.648;1.214;2023-10-13T01:21:05;59.28;;;17.42;;
66380;SDS011;53177;52.648;1.214;2023-10-13T01:23:31;54.17;;;15.85;;
66380;SDS011;53177;52.648;1.214;2023-10-13T01:26:03;57.58;;;17.10;;
66380;SDS011;53177;52.648;1.214;2023-10-13T01:28:30;55.13;;;15.90;;
66380;SDS011;53177;52.648;1.214;2023-10-13T01:31:01;51.90;;;16.27;;
66380;SDS011;53177;52.648;1.214;2023-10-13T01:33:26;55.37;;;16.63;;
66380;SDS011;53177;52.648;1.214;2023-10-13T01:35:52;48.90;;;15.10;;
66380;SDS011;53177;52.648;1.214;2023-10-13T01:38:20;51.70;;;16.70;;
66380;SDS011;53177;52.648;1.214;2023-10-13T01:40:45;49.03;;;15.07;;
66380;SDS011;53177;52.648;1.214;2023-10-13T01:43:16;50.33;;;15.38;;
66380;SDS011;53177;52.648;1.214;2023-10-13T01:45:42;44.72;;;13.77;;
66380;SDS011;53177;52.648;1.214;2023-10-13T01:48:15;44.90;;;13.98;;
66380;SDS011;53177;52.648;1.214;2023-10-13T01:50:42;47.08;;;14.63;;
66380;SDS011;53177;52.648;1.214;2023-10-13T01:53:17;39.65;;;12.43;;
66380;SDS011;53177;52.648;1.214;2023-10-13T01:55:42;37.80;;;12.68;;
66380;SDS011;53177;52.648;1.214;2023-10-13T01:58:14;35.78;;;11.75;;
66380;SDS011;53177;52.648;1.214;2023-10-13T02:00:40;30.20;;;11.25;;
66380;SDS011;53177;52.648;1.214;2023-10-13T02:03:10;26.63;;;8.75;;
66380;SDS011;53177;52.648;1.214;2023-10-13T02:05:40;22.50;;;8.23;;
66380;SDS011;53177;52.648;1.214;2023-10-13T02:08:08;23.60;;;8.33;;
66380;SDS011;53177;52.648;1.214;2023-10-13T02:10:35;24.17;;;8.18;;
66380;SDS011;53177;52.648;1.214;2023-10-13T02:13:00;24.50;;;8.53;;
66380;SDS011;53177;52.648;1.214;2023-10-13T02:15:27;23.15;;;8.48;;
66380;SDS011;53177;52.648;1.214;2023-10-13T02:17:59;24.67;;;8.60;;
66380;SDS011;53177;52.648;1.214;2023-10-13T02:20:25;23.37;;;7.77;;
66380;SDS011;53177;52.648;1.214;2023-10-13T02:22:55;26.15;;;7.35;;
66380;SDS011;53177;52.648;1.214;2023-10-13T02:25:21;17.37;;;7.40;;
66380;SDS011;53177;52.648;1.214;2023-10-13T02:28:08;18.58;;;6.93;;
66380;SDS011;53177;52.648;1.214;2023-10-13T02:30:39;17.35;;;6.53;;
66380;SDS011;53177;52.648;1.214;2023-10-13T02:33:13;18.00;;;6.70;;
66380;SDS011;53177;52.648;1.214;2023-10-13T02:35:40;18.33;;;6.85;;
66380;SDS011;53177;52.648;1.214;2023-10-13T02:38:16;18.88;;;6.78;;
66380;SDS011;53177;52.648;1.214;2023-10-13T02:40:51;19.35;;;6.93;;
66380;SDS011;53177;52.648;1.214;2023-10-13T02:43:16;17.47;;;6.17;;
66380;SDS011;53177;52.648;1.214;2023-10-13T02:45:41;15.50;;;5.90;;
66380;SDS011;53177;52.648;1.214;2023-10-13T02:48:08;15.05;;;5.50;;
66380;SDS011;53177;52.648;1.214;2023-10-13T02:50:42;13.88;;;5.40;;
66380;SDS011;53177;52.648;1.214;2023-10-13T02:53:10;16.23;;;5.57;;
66380;SDS011;53177;52.648;1.214;2023-10-13T02:55:54;13.20;;;5.30;;
66380;SDS011;53177;52.648;1.214;2023-10-13T02:58:23;17.60;;;5.70;;
66380;SDS011;53177;52.648;1.214;2023-10-13T03:01:02;15.95;;;5.55;;
66380;SDS011;53177;52.648;1.214;2023-10-13T03:03:41;13.30;;;5.07;;
66380;SDS011;53177;52.648;1.214;2023-10-13T03:06:08;15.18;;;5.10;;
66380;SDS011;53177;52.648;1.214;2023-10-13T03:08:36;18.65;;;5.18;;
66380;SDS011;53177;52.648;1.214;2023-10-13T03:11:02;14.65;;;4.47;;
66380;SDS011;53177;52.648;1.214;2023-10-13T03:13:30;13.50;;;4.50;;
66380;SDS011;53177;52.648;1.214;2023-10-13T03:15:58;12.85;;;4.32;;
66380;SDS011;53177;52.648;1.214;2023-10-13T03:18:24;10.48;;;4.35;;
66380;SDS011;53177;52.648;1.214;2023-10-13T03:20:50;12.23;;;4.00;;
66380;SDS011;53177;52.648;1.214;2023-10-13T03:23:16;8.73;;;3.20;;
66380;SDS011;53177;52.648;1.214;2023-10-13T03:25:41;6.83;;;2.77;;
66380;SDS011;53177;52.648;1.214;2023-10-13T03:28:14;6.75;;;2.40;;
66380;SDS011;53177;52.648;1.214;2023-10-13T03:30:42;5.35;;;1.92;;
66380;SDS011;53177;52.648;1.214;2023-10-13T03:33:08;5.67;;;2.10;;
66380;SDS011;53177;52.648;1.214;2023-10-13T03:35:39;7.20;;;2.10;;
66380;SDS011;53177;52.648;1.214;2023-10-13T03:38:09;4.97;;;2.10;;
66380;SDS011;53177;52.648;1.214;2023-10-13T03:40:45;7.50;;;2.15;;
66380;SDS011;53177;52.648;1.214;2023-10-13T03:43:13;9.02;;;2.58;;
66380;SDS011;53177;52.648;1.214;2023-10-13T03:45:44;8.25;;;2.60;;
66380;SDS011;53177;52.648;1.214;2023-10-13T03:51:06;12.57;;;3.63;;
66380;SDS011;53177;52.648;1.214;2023-10-13T03:53:32;8.50;;;3.20;;
66380;SDS011;53177;52.648;1.214;2023-10-13T03:56:02;10.27;;;3.95;;
66380;SDS011;53177;52.648;1.214;2023-10-13T03:58:49;8.52;;;3.10;;
66380;SDS011;53177;52.648;1.214;2023-10-13T04:01:14;9.03;;;3.80;;
66380;SDS011;53177;52.648;1.214;2023-10-13T04:03:41;8.27;;;3.45;;
66380;SDS011;53177;52.648;1.214;2023-10-13T04:06:27;10.10;;;3.73;;
66380;SDS011;53177;52.648;1.214;2023-10-13T04:09:14;7.80;;;3.53;;
66380;SDS011;53177;52.648;1.214;2023-10-13T04:11:55;9.73;;;3.70;;
66380;SDS011;53177;52.648;1.214;2023-10-13T04:14:28;11.93;;;4.10;;
66380;SDS011;53177;52.648;1.214;2023-10-13T04:17:16;14.50;;;4.40;;
66380;SDS011;53177;52.648;1.214;2023-10-13T04:19:47;10.03;;;4.30;;
66380;SDS011;53177;52.648;1.214;2023-10-13T04:22:32;10.10;;;4.30;;
66380;SDS011;53177;52.648;1.214;2023-10-13T04:25:13;12.38;;;5.05;;
66380;SDS011;53177;52.648;1.214;2023-10-13T04:30:42;15.77;;;5.50;;
66380;SDS011;53177;52.648;1.214;2023-10-13T04:33:20;13.20;;;4.93;;
66380;SDS011;53177;52.648;1.214;2023-10-13T04:36:14;15.23;;;5.60;;
66380;SDS011;53177;52.648;1.214;2023-10-13T04:38:53;14.02;;;5.50;;
66380;SDS011;53177;52.648;1.214;2023-10-13T04:41:25;13.13;;;5.78;;
66380;SDS011;53177;52.648;1.214;2023-10-13T04:43:59;15.88;;;6.30;;
66380;SDS011;53177;52.648;1.214;2023-10-13T04:46:47;13.17;;;6.40;;
66380;SDS011;53177;52.648;1.214;2023-10-13T04:49:13;13.38;;;6.30;;
66380;SDS011;53177;52.648;1.214;2023-10-13T04:51:57;15.67;;;6.63;;
66380;SDS011;53177;52.648;1.214;2023-10-13T04:54:27;14.80;;;6.40;;
66380;SDS011;53177;52.648;1.214;2023-10-13T04:56:59;13.95;;;5.93;;
66380;SDS011;53177;52.648;1.214;2023-10-13T04:59:25;12.70;;;5.85;;
66380;SDS011;53177;52.648;1.214;2023-10-13T05:02:22;14.68;;;6.32;;
66380;SDS011;53177;52.648;1.214;2023-10-13T05:05:00;12.77;;;5.50;;
66380;SDS011;53177;52.648;1.214;2023-10-13T05:07:34;16.02;;;6.15;;
66380;SDS011;53177;52.648;1.214;2023-10-13T05:10:18;17.30;;;6.22;;
66380;SDS011;53177;52.648;1.214;2023-10-13T05:13:03;16.48;;;6.13;;
66380;SDS011;53177;52.648;1.214;2023-10-13T05:15:47;19.35;;;6.50;;
66380;SDS011;53177;52.648;1.214;2023-10-13T05:18:32;17.80;;;6.80;;
66380;SDS011;53177;52.648;1.214;2023-10-13T05:21:16;20.63;;;6.30;;
66380;SDS011;53177;52.648;1.214;2023-10-13T05:24:01;15.38;;;6.35;;
66380;SDS011;53177;52.648;1.214;2023-10-13T05:26:45;17.52;;;7.10;;
66380;SDS011;53177;52.648;1.214;2023-10-13T05:29:29;16.35;;;6.45;;
66380;SDS011;53177;52.648;1.214;2023-10-13T05:32:13;17.80;;;6.60;;
66380;SDS011;53177;52.648;1.214;2023-10-13T05:34:57;16.40;;;7.00;;
66380;SDS011;53177;52.648;1.214;2023-10-13T05:37:42;18.02;;;7.30;;
66380;SDS011;53177;52.648;1.214;2023-10-13T05:40:26;14.18;;;6.80;;
66380;SDS011;53177;52.648;1.214;2023-10-13T05:43:11;14.80;;;7.18;;
66380;SDS011;53177;52.648;1.214;2023-10-13T05:46:01;18.10;;;7.73;;
66380;SDS011;53177;52.648;1.214;2023-10-13T05:48:46;18.05;;;7.68;;
66380;SDS011;53177;52.648;1.214;2023-10-13T05:51:24;22.17;;;8.07;;
66380;SDS011;53177;52.648;1.214;2023-10-13T05:54:05;23.83;;;9.13;;
66380;SDS011;53177;52.648;1.214;2023-10-13T05:56:48;19.27;;;8.55;;
66380;SDS011;53177;52.648;1.214;2023-10-13T05:59:35;22.20;;;9.57;;
66380;SDS011;53177;52.648;1.214;2023-10-13T06:02:22;28.58;;;9.63;;
66380;SDS011;53177;52.648;1.214;2023-10-13T06:05:07;29.73;;;10.18;;
66380;SDS011;53177;52.648;1.214;2023-10-13T06:07:53;22.15;;;8.70;;
66380;SDS011;53177;52.648;1.214;2023-10-13T06:10:37;22.08;;;8.63;;
66380;SDS011;53177;52.648;1.214;2023-10-13T06:13:22;21.33;;;8.77;;
66380;SDS011;53177;52.648;1.214;2023-10-13T06:16:07;21.38;;;8.85;;
66380;SDS011;53177;52.648;1.214;2023-10-13T06:18:51;23.88;;;8.60;;
66380;SDS011;53177;52.648;1.214;2023-10-13T06:21:35;20.45;;;7.90;;
66380;SDS011;53177;52.648;1.214;2023-10-13T06:24:19;19.55;;;7.80;;
66380;SDS011;53177;52.648;1.214;2023-10-13T06:27:03;18.63;;;7.53;;
66380;SDS011;53177;52.648;1.214;2023-10-13T06:29:47;23.20;;;8.50;;
66380;SDS011;53177;52.648;1.214;2023-10-13T06:32:13;25.23;;;8.88;;
66380;SDS011;53177;52.648;1.214;2023-10-13T06:34:41;21.90;;;7.75;;
66380;SDS011;53177;52.648;1.214;2023-10-13T06:37:12;24.67;;;8.07;;
66380;SDS011;53177;52.648;1.214;2023-10-13T06:40:11;22.48;;;7.72;;
66380;SDS011;53177;52.648;1.214;2023-10-13T06:42:49;20.70;;;7.90;;
66380;SDS011;53177;52.648;1.214;2023-10-13T06:45:15;17.50;;;7.20;;
66380;SDS011;53177;52.648;1.214;2023-10-13T06:47:42;18.48;;;7.63;;
66380;SDS011;53177;52.648;1.214;2023-10-13T06:50:12;17.55;;;7.32;;
66380;SDS011;53177;52.648;1.214;2023-10-13T06:52:47;24.73;;;7.40;;
66380;SDS011;53177;52.648;1.214;2023-10-13T06:55:13;24.85;;;7.25;;
66380;SDS011;53177;52.648;1.214;2023-10-13T06:57:52;22.23;;;7.60;;
66380;SDS011;53177;52.648;1.214;2023-10-13T07:00:18;21.02;;;7.43;;
66380;SDS011;53177;52.648;1.214;2023-10-13T07:02:50;18.33;;;7.60;;
66380;SDS011;53177;52.648;1.214;2023-10-13T07:05:17;18.60;;;6.85;;
66380;SDS011;53177;52.648;1.214;2023-10-13T07:07:44;20.77;;;7.43;;
66380;SDS011;53177;52.648;1.214;2023-10-13T07:10:10;22.57;;;8.10;;
66380;SDS011;53177;52.648;1.214;2023-10-13T07:12:38;21.20;;;6.40;;
66380;SDS011;53177;52.648;1.214;2023-10-13T07:15:08;21.42;;;7.55;;
66380;SDS011;53177;52.648;1.214;2023-10-13T07:17:44;20.98;;;6.50;;
66380;SDS011;53177;52.648;1.214;2023-10-13T07:20:12;20.35;;;6.72;;
66380;SDS011;53177;52.648;1.214;2023-10-13T07:23:01;17.70;;;5.97;;
66380;SDS011;53177;52.648;1.214;2023-10-13T07:25:31;17.38;;;6.00;;
66380;SDS011;53177;52.648;1.214;2023-10-13T07:28:05;20.60;;;6.15;;
66380;SDS011;53177;52.648;1.214;2023-10-13T07:30:34;20.60;;;6.20;;
66380;SDS011;53177;52.648;1.214;2023-10-13T07:33:18;23.70;;;6.18;;
66380;SDS011;53177;52.648;1.214;2023-10-13T07:35:47;23.13;;;6.47;;
66380;SDS011;53177;52.648;1.214;2023-10-13T07:38:23;23.25;;;6.70;;
66380;SDS011;53177;52.648;1.214;2023-10-13T07:40:50;20.20;;;6.03;;
66380;SDS011;53177;52.648;1.214;2023-10-13T07:43:16;21.73;;;5.43;;
66380;SDS011;53177;52.648;1.214;2023-10-13T07:45:46;18.50;;;5.90;;
66380;SDS011;53177;52.648;1.214;2023-10-13T07:48:23;18.20;;;5.50;;
66380;SDS011;53177;52.648;1.214;2023-10-13T07:51:00;19.17;;;5.85;;
66380;SDS011;53177;52.648;1.214;2023-10-13T07:53:31;20.37;;;5.60;;
66380;SDS011;53177;52.648;1.214;2023-10-13T07:55:59;20.65;;;5.50;;
66380;SDS011;53177;52.648;1.214;2023-10-13T07:58:37;17.23;;;5.97;;
66380;SDS011;53177;52.648;1.214;2023-10-13T08:01:18;24.60;;;6.43;;
66380;SDS011;53177;52.648;1.214;2023-10-13T08:03:44;20.50;;;6.15;;
66380;SDS011;53177;52.648;1.214;2023-10-13T08:06:17;22.30;;;6.00;;
66380;SDS011;53177;52.648;1.214;2023-10-13T08:08:43;19.40;;;5.78;;
66380;SDS011;53177;52.648;1.214;2023-10-13T08:11:12;25.63;;;5.47;;
66380;SDS011;53177;52.648;1.214;2023-10-13T08:13:47;18.70;;;5.40;;
66380;SDS011;53177;52.648;1.214;2023-10-13T08:16:18;24.95;;;5.53;;
66380;SDS011;53177;52.648;1.214;2023-10-13T08:18:51;21.23;;;5.63;;
66380;SDS011;53177;52.648;1.214;2023-10-13T08:21:17;24.27;;;5.90;;
66380;SDS011;53177;52.648;1.214;2023-10-13T08:23:49;20.42;;;5.47;;
66380;SDS011;53177;52.648;1.214;2023-10-13T08:26:18;17.10;;;4.73;;
66380;SDS011;53177;52.648;1.214;2023-10-13T08:29:16;19.75;;;5.10;;
66380;SDS011;53177;52.648;1.214;2023-10-13T08:31:48;20.48;;;5.82;;
66380;SDS011;53177;52.648;1.214;2023-10-13T08:34:35;24.30;;;5.43;;
66380;SDS011;53177;52.648;1.214;2023-10-13T08:37:07;22.65;;;5.38;;
66380;SDS011;53177;52.648;1.214;2023-10-13T08:39:56;20.33;;;5.17;;
66380;SDS011;53177;52.648;1.214;2023-10-13T08:42:28;21.65;;;5.60;;
66380;SDS011;53177;52.648;1.214;2023-10-13T08:45:13;20.30;;;6.07;;
66380;SDS011;53177;52.648;1.214;2023-10-13T08:48:06;18.77;;;5.20;;
66380;SDS011;53177;52.648;1.214;2023-10-13T08:50:48;17.48;;;5.22;;
66380;SDS011;53177;52.648;1.214;2023-10-13T08:53:24;17.27;;;5.27;;
66380;SDS011;53177;52.648;1.214;2023-10-13T08:56:01;19.42;;;5.20;;
66380;SDS011;53177;52.648;1.214;2023-10-13T08:58:34;18.90;;;5.45;;
66380;SDS011;53177;52.648;1.214;2023-10-13T09:01:34;18.25;;;4.82;;
66380;SDS011;53177;52.648;1.214;2023-10-13T09:04:36;17.33;;;5.07;;
66380;SDS011;53177;52.648;1.214;2023-10-13T09:07:03;25.10;;;5.83;;
66380;SDS011;53177;52.648;1.214;2023-10-13T09:09:32;15.75;;;4.38;;
66380;SDS011;53177;52.648;1.214;2023-10-13T09:12:23;18.58;;;5.53;;
66380;SDS011;53177;52.648;1.214;2023-10-13T09:14:59;24.58;;;5.80;;
66380;SDS011;53177;52.648;1.214;2023-10-13T09:17:31;22.60;;;5.00;;
66380;SDS011;53177;52.648;1.214;2023-10-13T09:20:01;22.63;;;4.77;;
66380;SDS011;53177;52.648;1.214;2023-10-13T09:23:07;19.63;;;4.68;;
66380;SDS011;53177;52.648;1.214;2023-10-13T09:25:35;19.38;;;4.95;;
66380;SDS011;53177;52.648;1.214;2023-10-13T09:28:13;20.80;;;5.22;;
66380;SDS011;53177;52.648;1.214;2023-10-13T09:30:51;17.10;;;4.95;;
66380;SDS011;53177;52.648;1.214;2023-10-13T09:33:26;19.40;;;4.50;;
66380;SDS011;53177;52.648;1.214;2023-10-13T09:36:13;15.98;;;4.72;;
66380;SDS011;53177;52.648;1.214;2023-10-13T09:38:42;17.08;;;4.22;;
66380;SDS011;53177;52.648;1.214;2023-10-13T09:41:36;16.08;;;4.65;;
66380;SDS011;53177;52.648;1.214;2023-10-13T09:44:07;11.63;;;3.67;;
66380;SDS011;53177;52.648;1.214;2023-10-13T09:46:37;14.43;;;4.03;;
66380;SDS011;53177;52.648;1.214;2023-10-13T09:49:11;14.75;;;3.50;;
66380;SDS011;53177;52.648;1.214;2023-10-13T09:51:40;11.98;;;3.80;;
66380;SDS011;53177;52.648;1.214;2023-10-13T09:56:37;12.93;;;3.80;;
66380;SDS011;53177;52.648;1.214;2023-10-13T09:59:20;14.33;;;3.67;;
66380;SDS011;53177;52.648;1.214;2023-10-13T10:01:49;14.88;;;3.83;;
66380;SDS011;53177;52.648;1.214;2023-10-13T10:04:22;10.15;;;3.70;;
66380;SDS011;53177;52.648;1.214;2023-10-13T10:06:51;9.65;;;3.60;;
66380;SDS011;53177;52.648;1.214;2023-10-13T10:09:19;11.37;;;3.30;;
66380;SDS011;53177;52.648;1.214;2023-10-13T10:12:15;12.55;;;3.58;;
66380;SDS011;53177;52.648;1.214;2023-10-13T10:17:59;9.95;;;3.42;;
66380;SDS011;53177;52.648;1.214;2023-10-13T10:20:32;13.35;;;3.80;;
66380;SDS011;53177;52.648;1.214;2023-10-13T10:23:09;12.50;;;3.90;;
66380;SDS011;53177;52.648;1.214;2023-10-13T10:25:46;11.80;;;3.80;;
66380;SDS011;53177;52.648;1.214;2023-10-13T10:28:12;15.32;;;4.32;;
66380;SDS011;53177;52.648;1.214;2023-10-13T10:30:41;12.07;;;4.03;;
66380;SDS011;53177;52.648;1.214;2023-10-13T10:33:07;10.15;;;3.63;;
66380;SDS011;53177;52.648;1.214;2023-10-13T10:35:45;12.27;;;3.67;;
66380;SDS011;53177;52.648;1.214;2023-10-13T10:38:13;11.27;;;4.00;;
66380;SDS011;53177;52.648;1.214;2023-10-13T10:40:53;11.25;;;4.07;;
66380;SDS011;53177;52.648;1.214;2023-10-13T10:46:06;10.52;;;4.05;;
66380;SDS011;53177;52.648;1.214;2023-10-13T10:48:32;11.57;;;4.50;;
66380;SDS011;53177;52.648;1.214;2023-10-13T10:50:59;16.92;;;4.50;;
66380;SDS011;53177;52.648;1.214;2023-10-13T10:53:31;10.05;;;4.05;;
66380;SDS011;53177;52.648;1.214;2023-10-13T10:56:08;10.93;;;4.32;;
66380;SDS011;53177;52.648;1.214;2023-10-13T10:58:47;13.05;;;4.22;;
66380;SDS011;53177;52.648;1.214;2023-10-13T11:01:14;10.43;;;3.97;;
66380;SDS011;53177;52.648;1.214;2023-10-13T11:03:56;12.68;;;3.97;;
66380;SDS011;53177;52.648;1.214;2023-10-13T11:06:26;11.50;;;4.25;;
66380;SDS011;53177;52.648;1.214;2023-10-13T11:09:02;16.38;;;5.10;;
66380;SDS011;53177;52.648;1.214;2023-10-13T11:11:46;12.15;;;4.38;;
66380;SDS011;53177;52.648;1.214;2023-10-13T11:14:27;14.17;;;4.17;;
66380;SDS011;53177;52.648;1.214;2023-10-13T11:16:54;10.10;;;3.40;;
66380;SDS011;53177;52.648;1.214;2023-10-13T11:19:34;11.85;;;3.40;;
66380;SDS011;53177;52.648;1.214;2023-10-13T11:25:01;10.30;;;3.78;;
66380;SDS011;53177;52.648;1.214;2023-10-13T11:27:40;10.95;;;3.67;;
66380;SDS011;53177;52.648;1.214;2023-10-13T11:30:17;10.63;;;3.55;;
66380;SDS011;53177;52.648;1.214;2023-10-13T11:33:07;9.90;;;3.42;;
66380;SDS011;53177;52.648;1.214;2023-10-13T11:35:38;9.95;;;3.65;;
66380;SDS011;53177;52.648;1.214;2023-10-13T11:38:17;12.55;;;4.32;;
66380;SDS011;53177;52.648;1.214;2023-10-13T11:43:31;13.23;;;4.43;;
66380;SDS011;53177;52.648;1.214;2023-10-13T11:46:05;11.20;;;3.50;;
66380;SDS011;53177;52.648;1.214;2023-10-13T11:48:33;10.98;;;3.63;;
66380;SDS011;53177;52.648;1.214;2023-10-13T11:51:02;10.38;;;3.58;;
66380;SDS011;53177;52.648;1.214;2023-10-13T11:53:35;11.10;;;3.57;;
66380;SDS011;53177;52.648;1.214;2023-10-13T11:56:02;11.98;;;4.47;;
66380;SDS011;53177;52.648;1.214;2023-10-13T11:58:34;12.20;;;3.72;;
66380;SDS011;53177;52.648;1.214;2023-10-13T12:01:01;10.65;;;3.85;;
66380;SDS011;53177;52.648;1.214;2023-10-13T12:03:44;12.05;;;3.60;;
66380;SDS011;53177;52.648;1.214;2023-10-13T12:06:29;13.07;;;3.70;;
66380;SDS011;53177;52.648;1.214;2023-10-13T12:09:08;10.90;;;3.70;;
66380;SDS011;53177;52.648;1.214;2023-10-13T12:11:57;13.88;;;3.92;;
66380;SDS011;53177;52.648;1.214;2023-10-13T12:14:29;13.40;;;3.72;;
66380;SDS011;53177;52.648;1.214;2023-10-13T12:17:21;10.45;;;3.53;;
66380;SDS011;53177;52.648;1.214;2023-10-13T12:19:53;11.33;;;3.40;;
66380;SDS011;53177;52.648;1.214;2023-10-13T12:22:23;12.25;;;4.20;;
66380;SDS011;53177;52.648;1.214;2023-10-13T12:24:57;13.15;;;4.13;;
66380;SDS011;53177;52.648;1.214;2023-10-13T12:27:24;10.35;;;3.45;;
66380;SDS011;53177;52.648;1.214;2023-10-13T12:30:00;9.40;;;2.95;;
66380;SDS011;53177;52.648;1.214;2023-10-13T12:32:33;9.90;;;3.50;;
66380;SDS011;53177;52.648;1.214;2023-10-13T12:35:04;13.23;;;3.60;;
66380;SDS011;53177;52.648;1.214;2023-10-13T12:37:32;11.93;;;3.38;;
66380;SDS011;53177;52.648;1.214;2023-10-13T12:40:14;9.05;;;2.95;;
66380;SDS011;53177;52.648;1.214;2023-10-13T12:43:07;10.57;;;2.75;;
66380;SDS011;53177;52.648;1.214;2023-10-13T12:45:51;10.27;;;3.43;;
66380;SDS011;53177;52.648;1.214;2023-10-13T12:48:38;11.15;;;3.03;;
66380;SDS011;53177;52.648;1.214;2023-10-13T12:51:25;10.52;;;3.20;;
66380;SDS011;53177;52.648;1.214;2023-10-13T12:53:57;10.82;;;3.50;;
66380;SDS011;53177;52.648;1.214;2023-10-13T12:56:32;9.50;;;2.70;;
66380;SDS011;53177;52.648;1.214;2023-10-13T12:59:00;8.77;;;2.83;;
66380;SDS011;53177;52.648;1.214;2023-10-13T13:01:35;9.63;;;2.80;;
66380;SDS011;53177;52.648;1.214;2023-10-13T13:04:11;10.60;;;2.92;;
66380;SDS011;53177;52.648;1.214;2023-10-13T13:06:57;10.07;;;3.13;;
66380;SDS011;53177;52.648;1.214;2023-10-13T13:09:26;12.90;;;3.67;;
66380;SDS011;53177;52.648;1.214;2023-10-13T13:11:57;8.97;;;3.00;;
66380;SDS011;53177;52.648;1.214;2023-10-13T13:14:25;8.95;;;2.85;;
66380;SDS011;53177;52.648;1.214;2023-10-13T13:16:56;8.82;;;2.70;;
66380;SDS011;53177;52.648;1.214;2023-10-13T13:19:34;13.73;;;3.28;;
66380;SDS011;53177;52.648;1.214;2023-10-13T13:22:06;8.48;;;2.85;;
66380;SDS011;53177;52.648;1.214;2023-10-13T13:24:41;13.27;;;3.30;;
66380;SDS011;53177;52.648;1.214;2023-10-13T13:27:16;10.07;;;3.35;;
66380;SDS011;53177;52.648;1.214;2023-10-13T13:29:46;12.43;;;3.22;;
66380;SDS011;53177;52.648;1.214;2023-10-13T13:32:13;13.13;;;3.38;;
66380;SDS011;53177;52.648;1.214;2023-10-13T13:34:54;11.60;;;3.30;;
66380;SDS011;53177;52.648;1.214;2023-10-13T13:37:43;14.03;;;4.00;;
66380;SDS011;53177;52.648;1.214;2023-10-13T13:40:14;13.00;;;3.88;;
66380;SDS011;53177;52.648;1.214;2023-10-13T13:43:00;11.98;;;3.63;;
66380;SDS011;53177;52.648;1.214;2023-10-13T13:45:32;9.98;;;3.05;;
66380;SDS011;53177;52.648;1.214;2023-10-13T13:48:03;9.18;;;3.25;;
66380;SDS011;53177;52.648;1.214;2023-10-13T13:50:37;10.40;;;3.30;;
66380;SDS011;53177;52.648;1.214;2023-10-13T13:53:12;9.57;;;2.92;;
66380;SDS011;53177;52.648;1.214;2023-10-13T13:55:40;9.63;;;3.22;;
66380;SDS011;53177;52.648;1.214;2023-10-13T13:58:07;12.30;;;3.53;;
66380;SDS011;53177;52.648;1.214;2023-10-13T14:00:38;9.63;;;3.00;;
66380;SDS011;53177;52.648;1.214;2023-10-13T14:03:14;12.07;;;3.37;;
66380;SDS011;53177;52.648;1.214;2023-10-13T14:06:02;10.23;;;3.42;;
66380;SDS011;53177;52.648;1.214;2023-10-13T14:08:30;12.15;;;3.33;;
66380;SDS011;53177;52.648;1.214;2023-10-13T14:11:05;14.32;;;4.60;;
66380;SDS011;53177;52.648;1.214;2023-10-13T14:13:40;11.27;;;3.40;;
66380;SDS011;53177;52.648;1.214;2023-10-13T14:16:43;18.47;;;5.77;;
66380;SDS011;53177;52.648;1.214;2023-10-13T14:19:14;14.18;;;3.65;;
66380;SDS011;53177;52.648;1.214;2023-10-13T14:22:02;11.98;;;3.60;;
66380;SDS011;53177;52.648;1.214;2023-10-13T14:24:34;11.02;;;3.38;;
66380;SDS011;53177;52.648;1.214;2023-10-13T14:27:09;9.68;;;2.88;;
66380;SDS011;53177;52.648;1.214;2023-10-13T14:29:55;7.27;;;1.90;;
66380;SDS011;53177;52.648;1.214;2023-10-13T14:32:23;6.13;;;1.60;;
66380;SDS011;53177;52.648;1.214;2023-10-13T14:34:54;6.47;;;1.45;;
66380;SDS011;53177;52.648;1.214;2023-10-13T14:37:22;6.57;;;1.30;;
66380;SDS011;53177;52.648;1.214;2023-10-13T14:40:09;5.15;;;1.10;;
66380;SDS011;53177;52.648;1.214;2023-10-13T14:42:47;4.90;;;1.00;;
66380;SDS011;53177;52.648;1.214;2023-10-13T14:45:15;7.18;;;1.63;;
66380;SDS011;53177;52.648;1.214;2023-10-13T14:47:44;6.85;;;1.52;;
66380;SDS011;53177;52.648;1.214;2023-10-13T14:50:13;8.27;;;1.60;;
66380;SDS011;53177;52.648;1.214;2023-10-13T14:52:48;5.13;;;1.50;;
66380;SDS011;53177;52.648;1.214;2023-10-13T14:55:17;6.43;;;1.60;;
66380;SDS011;53177;52.648;1.214;2023-10-13T14:57:50;6.68;;;1.50;;
66380;SDS011;53177;52.648;1.214;2023-10-13T15:00:18;6.63;;;1.38;;
66380;SDS011;53177;52.648;1.214;2023-10-13T15:02:53;5.80;;;1.30;;
66380;SDS011;53177;52.648;1.214;2023-10-13T15:05:22;8.27;;;2.03;;
66380;SDS011;53177;52.648;1.214;2023-10-13T15:07:55;6.72;;;1.67;;
66380;SDS011;53177;52.648;1.214;2023-10-13T15:10:25;5.50;;;1.40;;
66380;SDS011;53177;52.648;1.214;2023-10-13T15:12:53;7.60;;;1.58;;
66380;SDS011;53177;52.648;1.214;2023-10-13T15:15:21;8.18;;;1.88;;
66380;SDS011;53177;52.648;1.214;2023-10-13T15:17:49;12.63;;;2.78;;
66380;SDS011;53177;52.648;1.214;2023-10-13T15:20:19;14.23;;;2.47;;
66380;SDS011;53177;52.648;1.214;2023-10-13T15:22:50;9.80;;;1.92;;
66380;SDS011;53177;52.648;1.214;2023-10-13T15:25:26;7.47;;;1.67;;
66380;SDS011;53177;52.648;1.214;2023-10-13T15:28:05;5.65;;;1.40;;
66380;SDS011;53177;52.648;1.214;2023-10-13T15:30:35;8.10;;;1.80;;
66380;SDS011;53177;52.648;1.214;2023-10-13T15:33:24;5.68;;;1.20;;
66380;SDS011;53177;52.648;1.214;2023-10-13T15:35:56;5.68;;;1.33;;
66380;SDS011;53177;52.648;1.214;2023-10-13T15:38:29;5.20;;;1.27;;